Time;durP1;ratioP1;P1;durP2;ratioP2;P2;SDS_P1;SDS_P2;PMS_P1;PMS_P2;Temp;Humidity;BMP_temperature;BMP_pressure;BME280_temperature;BME280_humidity;BME280_pressure;Samples;Min_cycle;Max_cycle;Signal;HPM_P1;HPM_P2
2023/03/25 00:01:07;;;;;;;1.38;1.38;;;10.10;99.90;;;;;;4953116;28;20176;-87
2023/03/25 00:03:40;;;;;;;0.40;0.40;;;9.90;99.90;;;;;;4948493;28;20053;-88
2023/03/25 00:06:07;;;;;;;0.40;0.40;;;9.90;99.90;;;;;;4963821;28;20464;-88
2023/03/25 00:08:33;;;;;;;0.50;0.50;;;9.90;99.90;;;;;;4965286;28;20039;-85
2023/03/25 00:10:59;;;;;;;;;;;9.90;99.90;;;;;;4949093;28;20047;-87
2023/03/25 00:13:26;;;;;;;0.40;0.40;;;9.90;99.90;;;;;;4957328;28;19926;-87
2023/03/25 00:15:56;;;;;;;0.38;0.38;;;9.90;99.90;;;;;;4962699;28;20392;-87
2023/03/25 00:18:24;;;;;;;0.40;0.40;;;9.90;99.90;;;;;;4966240;28;20095;-87
2023/03/25 00:20:51;;;;;;;0.35;0.35;;;9.90;99.90;;;;;;4967562;28;20472;-86
2023/03/25 00:23:19;;;;;;;2.30;0.45;;;9.90;99.90;;;;;;4961193;28;20435;-87
2023/03/25 00:25:45;;;;;;;0.45;0.45;;;9.80;99.90;;;;;;4969304;28;20065;-87
2023/03/25 00:28:12;;;;;;;0.30;0.30;;;9.90;99.90;;;;;;4949685;28;20047;-87
2023/03/25 00:30:38;;;;;;;0.38;0.38;;;9.80;99.90;;;;;;4963808;28;20046;-87
2023/03/25 00:33:05;;;;;;;1.70;1.60;;;9.80;99.90;;;;;;4949144;28;20436;-87
2023/03/25 00:35:31;;;;;;;0.50;0.50;;;9.80;99.90;;;;;;4970225;28;20047;-87
2023/03/25 00:38:01;;;;;;;1.05;1.00;;;9.70;99.90;;;;;;4951570;28;20053;-87
2023/03/25 00:40:29;;;;;;;0.43;0.43;;;9.70;99.90;;;;;;4966266;28;20077;-87
2023/03/25 00:42:55;;;;;;;0.35;0.35;;;9.60;99.90;;;;;;4962765;28;20053;-87
2023/03/25 00:45:22;;;;;;;0.52;0.52;;;9.60;99.90;;;;;;4965722;28;20429;-86
2023/03/25 00:47:48;;;;;;;0.60;0.60;;;9.50;99.90;;;;;;4961481;28;20049;-86
2023/03/25 00:50:13;;;;;;;0.38;0.38;;;9.50;99.90;;;;;;4942607;28;20039;-87
2023/03/25 00:52:40;;;;;;;0.30;0.30;;;9.40;99.90;;;;;;4967651;28;20046;-87
2023/03/25 00:55:06;;;;;;;1.05;1.05;;;9.50;99.90;;;;;;4952897;28;20058;-87
2023/03/25 00:57:32;;;;;;;0.47;0.47;;;9.40;99.90;;;;;;4953914;28;20070;-87
2023/03/25 00:59:59;;;;;;;0.38;0.38;;;9.40;99.90;;;;;;4937496;28;20078;-87
2023/03/25 01:02:25;;;;;;;0.45;0.45;;;9.40;99.90;;;;;;4927861;28;20066;-87
2023/03/25 01:04:50;;;;;;;1.23;1.23;;;9.40;99.90;;;;;;4953155;28;20543;-88
2023/03/25 01:07:19;;;;;;;0.40;0.40;;;9.40;99.90;;;;;;4958972;28;20043;-88
2023/03/25 01:09:46;;;;;;;9.63;1.45;;;9.40;99.90;;;;;;4969923;28;20423;-88
2023/03/25 01:12:17;;;;;;;0.40;0.40;;;9.30;99.90;;;;;;4951787;28;20049;-87
2023/03/25 01:14:43;;;;;;;0.35;0.35;;;9.20;99.90;;;;;;4954534;28;20031;-88
2023/03/25 01:17:09;;;;;;;0.30;0.30;;;9.30;99.90;;;;;;4948102;28;20051;-87
2023/03/25 01:19:35;;;;;;;1.85;0.63;;;9.20;99.90;;;;;;4974560;28;20039;-89
2023/03/25 01:22:01;;;;;;;1.05;1.05;;;9.10;99.90;;;;;;4969952;28;20182;-88
2023/03/25 01:24:27;;;;;;;0.50;0.50;;;9.10;99.90;;;;;;4977845;28;20563;-88
2023/03/25 01:26:52;;;;;;;0.60;0.60;;;9.00;99.90;;;;;;4955431;28;20042;-89
2023/03/25 01:29:20;;;;;;;0.35;0.35;;;9.00;99.90;;;;;;4959296;28;20467;-89
2023/03/25 01:31:46;;;;;;;1.15;0.60;;;9.00;99.90;;;;;;4966429;28;20053;-89
2023/03/25 01:34:13;;;;;;;;;;;9.00;99.90;;;;;;4953027;28;20040;-89
2023/03/25 01:36:38;;;;;;;0.30;0.30;;;9.00;99.90;;;;;;4976684;28;20286;-89
2023/03/25 01:39:06;;;;;;;0.40;0.40;;;9.00;99.90;;;;;;4953906;28;20126;-88
2023/03/25 01:41:33;;;;;;;3.50;1.75;;;9.00;99.90;;;;;;4963542;28;20078;-88
2023/03/25 01:44:28;;;;;;;0.50;0.50;;;8.90;99.90;;;;;;4950573;28;20050;-88
2023/03/25 01:46:55;;;;;;;0.40;0.40;;;8.90;99.90;;;;;;4947873;28;20561;-87
2023/03/25 01:49:30;;;;;;;0.68;0.68;;;8.90;99.90;;;;;;4966164;28;20054;-88
2023/03/25 01:52:02;;;;;;;0.43;0.43;;;8.80;99.90;;;;;;4970772;28;20046;-87
2023/03/25 01:54:28;;;;;;;2.70;2.50;;;8.80;99.90;;;;;;4951702;28;20369;-88
2023/03/25 01:56:54;;;;;;;0.55;0.55;;;8.70;99.90;;;;;;4953339;28;20054;-87
2023/03/25 01:59:25;;;;;;;0.40;0.40;;;8.70;99.90;;;;;;4964342;28;20073;-89
2023/03/25 02:01:52;;;;;;;5.00;1.65;;;8.70;99.90;;;;;;4968467;28;20081;-87
2023/03/25 02:04:30;;;;;;;2.47;1.67;;;8.70;99.90;;;;;;4967808;28;20056;-86
2023/03/25 02:06:57;;;;;;;0.50;0.50;;;8.70;99.90;;;;;;4965756;28;20576;-86
2023/03/25 02:09:25;;;;;;;1.30;1.30;;;8.60;99.90;;;;;;5034639;28;20039;-87
2023/03/25 02:11:53;;;;;;;3.53;2.65;;;8.50;99.90;;;;;;4961268;28;20081;-87
2023/03/25 02:14:27;;;;;;;0.43;0.43;;;8.50;99.90;;;;;;4963937;28;20156;-86
2023/03/25 02:17:37;;;;;;;0.47;0.47;;;8.50;99.90;;;;;;4950780;28;20075;-84
2023/03/25 02:20:35;;;;;;;0.98;0.90;;;8.50;99.90;;;;;;4956910;28;20800;-84
2023/03/25 02:23:40;;;;;;;2.22;2.13;;;8.50;99.90;;;;;;4973912;28;20432;-85
2023/03/25 02:26:15;;;;;;;0.40;0.40;;;8.50;99.90;;;;;;4967518;28;20055;-86
2023/03/25 02:29:06;;;;;;;0.30;0.30;;;8.50;99.90;;;;;;4964739;28;20176;-88
2023/03/25 02:32:07;;;;;;;0.75;0.75;;;8.60;99.90;;;;;;4962019;28;20046;-84
2023/03/25 02:34:57;;;;;;;0.40;0.40;;;8.60;99.90;;;;;;4963034;28;20505;-85
2023/03/25 02:37:32;;;;;;;0.50;0.50;;;8.60;99.90;;;;;;4969594;28;20065;-86
2023/03/25 02:40:12;;;;;;;1.02;0.98;;;8.60;99.90;;;;;;4944094;28;20496;-84
2023/03/25 02:42:41;;;;;;;1.85;1.75;;;8.60;99.90;;;;;;4948286;28;20051;-85
2023/03/25 02:45:23;;;;;;;0.40;0.40;;;8.70;99.90;;;;;;4950782;28;20038;-84
2023/03/25 02:47:54;;;;;;;0.40;0.40;;;8.70;99.90;;;;;;4962393;28;20137;-86
2023/03/25 02:50:26;;;;;;;0.40;0.40;;;8.70;99.90;;;;;;4970749;28;20066;-85
2023/03/25 02:52:56;;;;;;;4.68;2.47;;;8.70;99.90;;;;;;4968814;28;20531;-86
2023/03/25 02:55:24;;;;;;;4.40;0.60;;;8.80;99.90;;;;;;4964943;28;20031;-85
2023/03/25 02:57:53;;;;;;;0.63;0.63;;;8.80;99.90;;;;;;4962990;28;20049;-87
2023/03/25 03:00:25;;;;;;;1.85;1.75;;;8.80;99.90;;;;;;4947313;28;20092;-86
2023/03/25 03:03:00;;;;;;;0.68;0.68;;;8.80;99.90;;;;;;4952048;28;20075;-86
2023/03/25 03:05:31;;;;;;;0.40;0.40;;;8.80;99.90;;;;;;4963196;28;20074;-85
2023/03/25 03:08:13;;;;;;;0.55;0.55;;;8.90;99.90;;;;;;4964396;28;20047;-86
2023/03/25 03:11:06;;;;;;;0.60;0.60;;;8.90;99.90;;;;;;4961558;28;20410;-86
2023/03/25 03:13:51;;;;;;;0.43;0.43;;;8.90;99.90;;;;;;4970453;28;20400;-87
2023/03/25 03:16:44;;;;;;;0.47;0.47;;;8.90;99.90;;;;;;4964801;28;20113;-86
2023/03/25 03:19:16;;;;;;;0.52;0.52;;;8.90;99.90;;;;;;4945339;28;20053;-85
2023/03/25 03:22:01;;;;;;;0.30;0.30;;;8.80;99.90;;;;;;4965904;28;20065;-85
2023/03/25 03:24:54;;;;;;;0.57;0.57;;;8.80;99.90;;;;;;4952898;28;20137;-87
2023/03/25 03:27:36;;;;;;;0.50;0.50;;;8.80;99.90;;;;;;4960086;28;20062;-84
2023/03/25 03:30:28;;;;;;;0.93;0.93;;;8.90;99.90;;;;;;4946921;28;20142;-89
2023/03/25 03:33:24;;;;;;;0.30;0.30;;;8.90;99.90;;;;;;4973903;28;20507;-89
2023/03/25 03:35:56;;;;;;;3.40;2.67;;;8.90;99.90;;;;;;4958202;28;20046;-88
2023/03/25 03:38:26;;;;;;;0.40;0.40;;;8.90;99.90;;;;;;4964337;28;20043;-84
2023/03/25 03:40:58;;;;;;;0.60;0.60;;;8.90;99.90;;;;;;4961194;28;20126;-84
2023/03/25 03:43:32;;;;;;;0.40;0.40;;;8.90;99.90;;;;;;4949781;28;20043;-86
2023/03/25 03:46:04;;;;;;;0.40;0.40;;;9.00;99.90;;;;;;4961508;28;20059;-85
2023/03/25 03:48:45;;;;;;;0.52;0.52;;;9.00;99.90;;;;;;4949497;28;20036;-82
2023/03/25 03:51:20;;;;;;;0.90;0.90;;;9.00;99.90;;;;;;4972926;28;20051;-86
2023/03/25 03:54:07;;;;;;;0.50;0.50;;;8.90;99.90;;;;;;4960309;28;20065;-87
2023/03/25 03:56:45;;;;;;;0.40;0.40;;;8.90;99.90;;;;;;4962699;28;20070;-85
2023/03/25 03:59:26;;;;;;;0.60;0.60;;;8.90;99.90;;;;;;4942488;28;20132;-86
2023/03/25 04:01:58;;;;;;;0.85;0.65;;;8.90;99.90;;;;;;4940835;28;20138;-86
2023/03/25 04:04:27;;;;;;;0.40;0.40;;;8.90;99.90;;;;;;4951137;28;20102;-85
2023/03/25 04:07:09;;;;;;;0.40;0.40;;;8.90;99.90;;;;;;4961805;28;20051;-85
2023/03/25 04:10:02;;;;;;;0.50;0.50;;;8.80;99.90;;;;;;4955849;28;20042;-87
2023/03/25 04:12:31;;;;;;;0.40;0.40;;;8.80;99.90;;;;;;4947509;28;20376;-87
2023/03/25 04:15:00;;;;;;;0.40;0.40;;;8.70;99.90;;;;;;4950189;28;20416;-87
2023/03/25 04:17:28;;;;;;;0.50;0.50;;;8.70;99.90;;;;;;4951874;28;20054;-87
2023/03/25 04:19:55;;;;;;;0.40;0.40;;;8.60;99.90;;;;;;4953219;28;20383;-87
2023/03/25 04:22:21;;;;;;;0.43;0.43;;;8.60;99.90;;;;;;4953514;28;20072;-87
2023/03/25 04:24:54;;;;;;;0.40;0.40;;;8.60;99.90;;;;;;4936926;28;20551;-87
2023/03/25 04:27:23;;;;;;;0.50;0.50;;;8.60;99.90;;;;;;4949566;28;21310;-88
2023/03/25 04:29:50;;;;;;;0.40;0.40;;;8.60;99.90;;;;;;4952648;28;20503;-83
2023/03/25 04:32:16;;;;;;;1.20;0.52;;;8.60;99.90;;;;;;4959323;28;20051;-85
2023/03/25 04:34:42;;;;;;;0.40;0.40;;;8.60;99.90;;;;;;4965296;28;20340;-84
2023/03/25 04:37:08;;;;;;;0.60;0.60;;;8.60;99.90;;;;;;4965012;28;20384;-85
2023/03/25 04:39:34;;;;;;;0.50;0.50;;;8.70;99.90;;;;;;4965248;28;20046;-85
2023/03/25 04:42:02;;;;;;;2.28;0.88;;;8.70;99.90;;;;;;4962992;28;20129;-83
2023/03/25 04:44:32;;;;;;;0.50;0.50;;;8.70;99.90;;;;;;4944846;28;20047;-84
2023/03/25 04:46:59;;;;;;;0.47;0.47;;;8.70;99.90;;;;;;4950096;28;20740;-84
2023/03/25 04:49:25;;;;;;;0.68;0.68;;;8.70;99.90;;;;;;4965663;28;20070;-85
2023/03/25 04:51:52;;;;;;;;;;;8.70;99.90;;;;;;4948961;28;20430;-85
2023/03/25 04:54:18;;;;;;;1.48;1.38;;;8.70;99.90;;;;;;4950304;28;19918;-86
2023/03/25 04:56:46;;;;;;;0.60;0.60;;;8.60;99.90;;;;;;4965887;28;20045;-85
2023/03/25 04:59:12;;;;;;;0.55;0.55;;;8.60;99.90;;;;;;4965461;28;20050;-86
2023/03/25 05:01:41;;;;;;;0.45;0.45;;;8.60;99.90;;;;;;4964202;28;20046;-86
2023/03/25 05:04:11;;;;;;;0.40;0.40;;;8.60;99.90;;;;;;4963033;28;20057;-85
2023/03/25 05:06:46;;;;;;;1.77;1.45;;;8.60;99.90;;;;;;4964142;28;20125;-85
2023/03/25 05:09:18;;;;;;;0.77;0.77;;;8.50;99.90;;;;;;4962770;28;20050;-85
2023/03/25 05:11:44;;;;;;;3.83;3.58;;;8.60;99.90;;;;;;4966896;28;20119;-83
2023/03/25 05:14:12;;;;;;;4.47;0.77;;;8.60;99.90;;;;;;4964250;28;20043;-84
2023/03/25 05:16:38;;;;;;;0.40;0.40;;;8.60;99.90;;;;;;4946185;28;20042;-84
2023/03/25 05:19:05;;;;;;;3.67;0.60;;;8.70;99.90;;;;;;4964227;28;20057;-86
2023/03/25 05:21:34;;;;;;;0.60;0.60;;;8.70;99.90;;;;;;4964574;28;20104;-84
2023/03/25 05:24:01;;;;;;;0.50;0.50;;;8.70;99.90;;;;;;4964315;28;20124;-86
2023/03/25 05:26:33;;;;;;;0.50;0.50;;;8.70;99.90;;;;;;4960099;28;20086;-84
2023/03/25 05:29:12;;;;;;;0.57;0.57;;;8.80;99.90;;;;;;4950167;28;20078;-84
2023/03/25 05:31:44;;;;;;;0.60;0.60;;;8.80;99.90;;;;;;4940917;28;20054;-85
2023/03/25 05:34:10;;;;;;;0.30;0.30;;;8.80;99.90;;;;;;4965890;28;20419;-85
2023/03/25 05:36:36;;;;;;;0.50;0.50;;;8.80;99.90;;;;;;4972282;28;20454;-84
2023/03/25 05:39:04;;;;;;;0.32;0.32;;;8.80;99.90;;;;;;4950183;28;20035;-86
2023/03/25 05:41:37;;;;;;;1.88;1.38;;;8.80;99.90;;;;;;4967906;28;20062;-86
2023/03/25 05:44:08;;;;;;;0.43;0.43;;;8.90;99.90;;;;;;4967625;28;20046;-86
2023/03/25 05:46:34;;;;;;;1.23;1.23;;;8.90;99.90;;;;;;4965580;28;20093;-83
2023/03/25 05:49:00;;;;;;;0.52;0.52;;;8.80;99.90;;;;;;4967765;28;20074;-87
2023/03/25 05:51:28;;;;;;;0.68;0.68;;;8.80;99.90;;;;;;4965638;28;20050;-85
2023/03/25 05:53:53;;;;;;;12.35;1.15;;;8.80;99.90;;;;;;4965344;28;20072;-85
2023/03/25 05:56:21;;;;;;;0.55;0.55;;;8.80;99.90;;;;;;4952344;28;20035;-85
2023/03/25 05:58:48;;;;;;;3.40;0.77;;;8.80;99.90;;;;;;4963884;28;20043;-85
2023/03/25 06:01:15;;;;;;;0.40;0.40;;;8.80;99.90;;;;;;4949322;28;20043;-85
2023/03/25 06:03:42;;;;;;;2.00;1.38;;;8.90;99.90;;;;;;4930041;28;20047;-85
2023/03/25 06:06:12;;;;;;;0.85;0.85;;;8.90;99.90;;;;;;4951109;28;20047;-84
2023/03/25 06:08:42;;;;;;;1.30;1.30;;;8.80;99.90;;;;;;4961275;28;20098;-86
2023/03/25 06:11:08;;;;;;;1.63;1.60;;;8.80;99.90;;;;;;4954386;28;20083;-85
2023/03/25 06:13:38;;;;;;;0.50;0.50;;;8.90;99.90;;;;;;4965050;28;20047;-84
2023/03/25 06:16:05;;;;;;;0.30;0.30;;;8.90;99.90;;;;;;4949640;28;20047;-85
2023/03/25 06:18:32;;;;;;;3.40;3.30;;;8.90;99.90;;;;;;4963111;28;20080;-83
2023/03/25 06:20:58;;;;;;;0.35;0.35;;;8.90;99.90;;;;;;4963687;28;20046;-86
2023/03/25 06:23:25;;;;;;;0.52;0.52;;;8.90;99.90;;;;;;4948278;28;20493;-85
2023/03/25 06:25:51;;;;;;;0.50;0.50;;;9.00;99.90;;;;;;4960950;28;20054;-85
2023/03/25 06:28:18;;;;;;;0.50;0.50;;;9.00;99.90;;;;;;4949089;28;20072;-85
2023/03/25 06:30:48;;;;;;;0.60;0.60;;;9.00;99.90;;;;;;4965293;28;20050;-86
2023/03/25 06:33:14;;;;;;;1.33;1.33;;;9.00;99.90;;;;;;4960831;28;20435;-87
2023/03/25 06:35:41;;;;;;;0.40;0.40;;;9.00;99.90;;;;;;4949461;28;20396;-88
2023/03/25 06:38:10;;;;;;;0.45;0.45;;;9.00;99.90;;;;;;4968712;28;20492;-86
2023/03/25 06:40:39;;;;;;;0.40;0.40;;;8.80;99.90;;;;;;5041555;28;20047;-86
2023/03/25 06:43:05;;;;;;;1.02;1.02;;;8.40;99.90;;;;;;4950826;28;20046;-87
2023/03/25 06:45:32;;;;;;;0.40;0.40;;;8.20;99.90;;;;;;4937470;28;20119;-87
2023/03/25 06:47:59;;;;;;;0.40;0.40;;;8.00;99.90;;;;;;4951188;29;20039;-87
2023/03/25 06:50:25;;;;;;;0.52;0.52;;;7.90;99.90;;;;;;4949788;28;20437;-86
2023/03/25 06:52:51;;;;;;;0.45;0.45;;;7.80;99.90;;;;;;4965768;28;20034;-85
2023/03/25 06:55:17;;;;;;;0.50;0.50;;;7.80;99.90;;;;;;4968234;28;20169;-83
2023/03/25 06:57:43;;;;;;;0.50;0.50;;;7.90;99.90;;;;;;4930954;28;20038;-84
2023/03/25 07:00:10;;;;;;;0.50;0.50;;;7.90;99.90;;;;;;4945768;28;20046;-84
2023/03/25 07:02:37;;;;;;;0.43;0.43;;;8.00;99.90;;;;;;4959783;28;20059;-85
2023/03/25 07:05:03;;;;;;;0.60;0.60;;;8.10;99.90;;;;;;4962351;28;20050;-85
2023/03/25 07:07:29;;;;;;;0.52;0.52;;;8.10;99.90;;;;;;4964201;28;20057;-85
2023/03/25 07:09:55;;;;;;;0.50;0.50;;;8.20;99.90;;;;;;4966393;28;20058;-85
2023/03/25 07:12:22;;;;;;;0.50;0.50;;;8.30;99.90;;;;;;4963904;28;21551;-86
2023/03/25 07:14:56;;;;;;;0.95;0.95;;;8.40;99.90;;;;;;4966258;28;20411;-88
2023/03/25 07:17:22;;;;;;;0.60;0.60;;;8.50;99.90;;;;;;4950286;28;20049;-87
2023/03/25 07:19:48;;;;;;;0.50;0.50;;;8.60;99.90;;;;;;4964109;28;20058;-85
2023/03/25 07:22:14;;;;;;;0.50;0.50;;;8.80;99.90;;;;;;4964495;28;20039;-86
2023/03/25 07:24:40;;;;;;;0.50;0.50;;;8.90;99.90;;;;;;4950298;28;20062;-85
2023/03/25 07:27:06;;;;;;;0.32;0.32;;;8.80;99.90;;;;;;4948107;28;20385;-86
2023/03/25 07:29:32;;;;;;;0.40;0.40;;;8.70;99.90;;;;;;4945209;28;20556;-87
2023/03/25 07:31:57;;;;;;;0.47;0.47;;;8.60;99.90;;;;;;4944700;28;20129;-86
2023/03/25 07:34:23;;;;;;;0.50;0.50;;;8.40;99.90;;;;;;4974492;28;20046;-84
2023/03/25 07:36:49;;;;;;;0.60;0.60;;;8.30;99.90;;;;;;4966221;28;20051;-87
2023/03/25 07:39:17;;;;;;;0.40;0.40;;;8.20;99.90;;;;;;4962965;28;20112;-87
2023/03/25 07:41:43;;;;;;;0.77;0.77;;;8.20;99.90;;;;;;4935932;28;20050;-87
2023/03/25 07:44:09;;;;;;;0.50;0.50;;;8.20;99.90;;;;;;4966219;28;20123;-87
2023/03/25 07:46:34;;;;;;;0.50;0.50;;;8.10;99.90;;;;;;4962962;28;20536;-87
2023/03/25 07:49:00;;;;;;;1.67;1.58;;;8.10;99.90;;;;;;4936524;28;20049;-87
2023/03/25 07:51:26;;;;;;;0.70;0.70;;;8.10;99.90;;;;;;4958187;28;20062;-87
2023/03/25 07:53:52;;;;;;;0.52;0.52;;;8.10;99.90;;;;;;4974166;28;20086;-88
2023/03/25 07:56:17;;;;;;;0.65;0.65;;;8.20;99.90;;;;;;4951981;28;20783;-87
2023/03/25 07:58:44;;;;;;;0.43;0.43;;;8.10;99.90;;;;;;4965518;28;20588;-87
2023/03/25 08:01:10;;;;;;;4.30;2.15;;;8.10;99.90;;;;;;4963605;28;20050;-87
2023/03/25 08:03:38;;;;;;;0.52;0.52;;;8.10;99.90;;;;;;4951392;28;20090;-91
2023/03/25 08:06:05;;;;;;;0.40;0.40;;;8.10;99.90;;;;;;4958810;28;20080;-88
2023/03/25 08:08:32;;;;;;;0.50;0.50;;;8.20;99.90;;;;;;4961562;28;20057;-89
2023/03/25 08:10:57;;;;;;;0.47;0.47;;;8.40;99.90;;;;;;4978812;28;20215;-89
2023/03/25 08:13:24;;;;;;;0.50;0.50;;;8.50;99.90;;;;;;4935809;28;20043;-87
2023/03/25 08:15:50;;;;;;;1.85;1.70;;;8.40;99.90;;;;;;4948357;28;20066;-87
2023/03/25 08:18:16;;;;;;;0.50;0.50;;;8.40;99.90;;;;;;4953905;28;20045;-87
2023/03/25 08:20:42;;;;;;;0.52;0.52;;;8.50;99.90;;;;;;4965598;28;20039;-88
2023/03/25 08:23:09;;;;;;;0.30;0.30;;;8.40;99.90;;;;;;4961193;28;20045;-87
2023/03/25 08:25:39;;;;;;;4.22;1.88;;;8.40;99.90;;;;;;4985727;28;20071;-89
2023/03/25 08:28:05;;;;;;;0.40;0.40;;;8.40;99.90;;;;;;4977408;28;20118;-85
2023/03/25 08:30:37;;;;;;;0.40;0.40;;;8.40;99.90;;;;;;4990692;28;20054;-86
2023/03/25 08:33:08;;;;;;;0.40;0.40;;;8.40;99.90;;;;;;4971478;28;20498;-86
2023/03/25 08:35:36;;;;;;;0.70;0.70;;;8.40;99.90;;;;;;4963571;28;20039;-83
2023/03/25 08:38:05;;;;;;;1.08;1.08;;;8.50;99.90;;;;;;4966885;28;20055;-85
2023/03/25 08:40:33;;;;;;;0.50;0.50;;;8.50;99.90;;;;;;4963776;28;20062;-86
2023/03/25 08:42:59;;;;;;;0.50;0.50;;;8.50;99.90;;;;;;4948356;28;20054;-86
2023/03/25 08:45:25;;;;;;;0.40;0.40;;;8.40;99.90;;;;;;4952430;28;20213;-84
2023/03/25 08:47:51;;;;;;;0.50;0.50;;;8.40;99.90;;;;;;4952963;28;20133;-85
2023/03/25 08:50:17;;;;;;;0.50;0.50;;;8.50;99.90;;;;;;4969706;28;20043;-85
2023/03/25 08:52:42;;;;;;;0.30;0.30;;;8.60;99.90;;;;;;4970383;28;20403;-85
2023/03/25 08:55:10;;;;;;;0.43;0.43;;;8.60;99.90;;;;;;4923703;28;20035;-86
2023/03/25 08:57:36;;;;;;;0.90;0.90;;;8.60;99.90;;;;;;4965519;28;20071;-85
2023/03/25 09:00:13;;;;;;;0.40;0.40;;;8.70;99.90;;;;;;4924041;28;20071;-87
2023/03/25 09:02:39;;;;;;;0.40;0.40;;;8.70;99.90;;;;;;5011765;28;20069;-87
2023/03/25 09:05:05;;;;;;;0.50;0.50;;;8.80;99.90;;;;;;4951402;28;20500;-84
2023/03/25 09:07:32;;;;;;;;;;;8.90;99.90;;;;;;4945791;28;20055;-86
2023/03/25 09:09:58;;;;;;;0.63;0.63;;;9.10;99.90;;;;;;4962023;28;20607;-83
2023/03/25 09:12:24;;;;;;;0.70;0.70;;;9.20;99.90;;;;;;4967256;28;20038;-86
2023/03/25 09:14:49;;;;;;;0.70;0.70;;;9.20;99.90;;;;;;5030669;28;20055;-86
2023/03/25 09:17:15;;;;;;;2.10;0.70;;;9.30;99.90;;;;;;4962537;28;20042;-85
2023/03/25 09:19:40;;;;;;;2.33;2.22;;;9.40;99.90;;;;;;5033535;28;20373;-86
2023/03/25 09:22:08;;;;;;;0.65;0.65;;;9.70;99.90;;;;;;4965369;28;20038;-86
2023/03/25 09:24:34;;;;;;;1.20;1.10;;;9.90;99.90;;;;;;4964329;28;20054;-87
2023/03/25 09:27:01;;;;;;;0.30;0.30;;;10.10;99.90;;;;;;4963911;28;20397;-86
2023/03/25 09:29:27;;;;;;;0.40;0.40;;;10.20;99.90;;;;;;4968291;28;20047;-86
2023/03/25 09:31:53;;;;;;;;;;;10.20;99.90;;;;;;4964854;28;20038;-85
2023/03/25 09:34:19;;;;;;;0.40;0.40;;;10.20;99.90;;;;;;4948937;28;20383;-87
2023/03/25 09:36:44;;;;;;;0.50;0.50;;;10.10;99.90;;;;;;5032548;28;20043;-85
2023/03/25 09:39:10;;;;;;;1.85;1.75;;;10.00;99.90;;;;;;4947647;28;20046;-86
2023/03/25 09:42:06;;;;;;;0.50;0.50;;;10.10;99.90;;;;;;4988352;28;20051;-85
2023/03/25 09:44:57;;;;;;;0.43;0.43;;;10.10;99.90;;;;;;4967928;28;20042;-86
2023/03/25 09:47:24;;;;;;;1.55;1.20;;;10.00;99.90;;;;;;4979983;28;20050;-86
2023/03/25 09:49:56;;;;;;;0.52;0.52;;;10.00;99.90;;;;;;4976318;28;20053;-86
2023/03/25 09:52:28;;;;;;;1.13;1.13;;;9.90;99.90;;;;;;4976446;28;20038;-85
2023/03/25 09:55:03;;;;;;;0.52;0.52;;;10.00;99.90;;;;;;4967712;28;20043;-85
2023/03/25 09:57:32;;;;;;;0.40;0.40;;;10.10;99.90;;;;;;4998124;28;20043;-86
2023/03/25 10:00:00;;;;;;;4.50;0.98;;;10.20;99.90;;;;;;4952449;28;20046;-86
2023/03/25 10:02:41;;;;;;;0.57;0.57;;;10.20;99.90;;;;;;4964274;28;20050;-84
2023/03/25 10:05:41;;;;;;;0.47;0.47;;;10.30;99.90;;;;;;4968198;28;20050;-86
2023/03/25 10:08:34;;;;;;;0.30;0.30;;;10.40;99.90;;;;;;4968122;28;20408;-87
2023/03/25 10:11:13;;;;;;;0.35;0.35;;;10.40;99.90;;;;;;4964285;28;20128;-85
2023/03/25 10:14:06;;;;;;;0.20;0.20;;;10.30;99.90;;;;;;4964874;28;20075;-85
2023/03/25 10:16:53;;;;;;;0.65;0.65;;;10.20;99.90;;;;;;4963169;28;20053;-86
2023/03/25 10:19:28;;;;;;;0.40;0.40;;;10.10;99.90;;;;;;4966634;28;20472;-86
2023/03/25 10:22:15;;;;;;;0.80;0.80;;;10.00;99.90;;;;;;4948275;28;20129;-86
2023/03/25 10:24:50;;;;;;;0.45;0.45;;;10.10;99.90;;;;;;4960059;28;20071;-86
2023/03/25 10:27:50;;;;;;;0.50;0.50;;;10.10;99.90;;;;;;4960666;28;20069;-85
2023/03/25 10:30:31;;;;;;;0.93;0.93;;;9.90;99.90;;;;;;4950025;28;20070;-86
2023/03/25 10:33:00;;;;;;;1.42;1.08;;;9.90;99.90;;;;;;4962054;28;20047;-85
2023/03/25 10:35:32;;;;;;;0.40;0.40;;;9.90;99.90;;;;;;4965955;28;20389;-86
2023/03/25 10:38:23;;;;;;;0.73;0.73;;;10.00;99.90;;;;;;4956928;28;20119;-85
2023/03/25 10:41:04;;;;;;;0.57;0.57;;;10.10;99.90;;;;;;4961680;28;20488;-85
2023/03/25 10:43:33;;;;;;;0.50;0.50;;;10.10;99.90;;;;;;4962914;28;20051;-85
2023/03/25 10:46:27;;;;;;;0.60;0.60;;;10.20;99.90;;;;;;4962613;28;20611;-85
2023/03/25 10:48:52;;;;;;;0.30;0.30;;;10.20;99.90;;;;;;4946736;28;20046;-85
2023/03/25 10:51:26;;;;;;;0.40;0.40;;;10.30;99.90;;;;;;4960847;28;20479;-86
2023/03/25 10:53:52;;;;;;;2.38;2.17;;;10.30;99.90;;;;;;4963486;28;20043;-86
2023/03/25 10:56:32;;;;;;;1.15;1.15;;;10.20;99.90;;;;;;4962633;28;20051;-86
2023/03/25 10:59:03;;;;;;;1.08;0.70;;;10.10;99.90;;;;;;4960759;28;20122;-86
2023/03/25 11:01:41;;;;;;;0.80;0.80;;;10.10;99.90;;;;;;4962753;28;20415;-86
2023/03/25 11:04:18;;;;;;;1.70;1.60;;;10.10;99.90;;;;;;4960646;28;20054;-85
2023/03/25 11:06:45;;;;;;;;;;;10.30;99.90;;;;;;4946760;28;20401;-84
2023/03/25 11:09:19;;;;;;;0.63;0.63;;;10.30;99.90;;;;;;4960073;28;19922;-84
2023/03/25 11:11:46;;;;;;;0.60;0.60;;;10.40;99.90;;;;;;4963880;28;20049;-84
2023/03/25 11:14:12;;;;;;;0.32;0.32;;;10.60;99.90;;;;;;4943373;28;20515;-83
2023/03/25 11:17:02;;;;;;;0.43;0.43;;;10.50;99.90;;;;;;4962296;28;20039;-84
2023/03/25 11:19:54;;;;;;;0.28;0.28;;;10.50;99.90;;;;;;4943884;28;20096;-84
2023/03/25 11:22:37;;;;;;;0.50;0.50;;;10.70;99.90;;;;;;4962271;28;20054;-83
2023/03/25 11:25:28;;;;;;;3.53;1.17;;;10.90;99.90;;;;;;4967712;28;20070;-83
2023/03/25 11:28:10;;;;;;;1.48;1.38;;;11.00;99.90;;;;;;4978472;28;20050;-84
2023/03/25 11:30:36;;;;;;;1.83;1.73;;;10.80;99.90;;;;;;4979773;28;20054;-83
2023/03/25 11:33:13;;;;;;;0.50;0.50;;;10.70;99.90;;;;;;4968302;28;20057;-84
2023/03/25 11:35:43;;;;;;;1.65;0.98;;;10.80;99.90;;;;;;4967970;28;20063;-83
2023/03/25 11:38:19;;;;;;;0.30;0.30;;;10.90;99.90;;;;;;4956686;28;20388;-83
2023/03/25 11:40:57;;;;;;;0.57;0.57;;;10.80;99.90;;;;;;4968741;28;20049;-83
2023/03/25 11:43:27;;;;;;;0.50;0.50;;;10.60;99.90;;;;;;4960518;28;20034;-83
2023/03/25 11:45:53;;;;;;;0.30;0.30;;;10.60;99.90;;;;;;4962761;28;20069;-84
2023/03/25 11:48:37;;;;;;;0.40;0.40;;;10.70;99.90;;;;;;4949286;28;20038;-83
2023/03/25 11:51:08;;;;;;;0.50;0.50;;;10.70;99.90;;;;;;4980397;28;20043;-83
2023/03/25 11:53:34;;;;;;;0.30;0.30;;;10.80;99.90;;;;;;4963409;28;20050;-84
2023/03/25 11:56:06;;;;;;;0.63;0.63;;;11.00;99.90;;;;;;4982993;28;20050;-84
2023/03/25 11:58:35;;;;;;;0.63;0.60;;;11.10;99.90;;;;;;4932412;28;20039;-84
2023/03/25 12:01:16;;;;;;;0.30;0.30;;;11.20;99.90;;;;;;4964178;28;20061;-84
2023/03/25 12:03:44;;;;;;;0.38;0.38;;;11.40;99.90;;;;;;4949060;28;20054;-84
2023/03/25 12:06:21;;;;;;;1.05;0.98;;;11.60;99.90;;;;;;4965642;28;20042;-85
2023/03/25 12:08:57;;;;;;;0.20;0.20;;;11.50;99.90;;;;;;4966462;28;20051;-84
2023/03/25 12:11:37;;;;;;;;;;;11.50;99.90;;;;;;4966160;28;20050;-83
2023/03/25 12:14:28;;;;;;;0.28;0.28;;;11.40;99.90;;;;;;4943867;28;19921;-84
2023/03/25 12:17:02;;;;;;;0.40;0.40;;;11.40;99.90;;;;;;4972411;28;20048;-84
2023/03/25 12:20:12;;;;;;;0.68;0.65;;;11.40;99.90;;;;;;4953476;28;20045;-84
2023/03/25 12:22:50;;;;;;;1.38;0.50;;;11.30;99.90;;;;;;4968321;28;20054;-84
2023/03/25 12:25:25;;;;;;;0.70;0.70;;;11.40;99.90;;;;;;4966999;28;20047;-83
2023/03/25 12:28:21;;;;;;;0.50;0.50;;;11.40;99.90;;;;;;4957775;28;20384;-84
2023/03/25 12:31:18;;;;;;;0.40;0.40;;;11.40;99.90;;;;;;4965342;28;20050;-84
2023/03/25 12:33:53;;;;;;;2.00;1.90;;;11.40;99.90;;;;;;4966394;28;20057;-85
2023/03/25 12:36:32;;;;;;;0.28;0.28;;;11.30;99.90;;;;;;4951949;28;20074;-84
2023/03/25 12:39:22;;;;;;;1.55;1.45;;;11.30;99.90;;;;;;4965800;28;20047;-83
2023/03/25 12:42:20;;;;;;;1.08;0.82;;;11.30;99.90;;;;;;4969611;28;20042;-84
2023/03/25 12:45:31;;;;;;;0.38;0.38;;;11.30;99.90;;;;;;4968569;28;20047;-84
2023/03/25 12:48:05;;;;;;;0.40;0.40;;;11.30;99.90;;;;;;4951426;28;20039;-83
2023/03/25 12:50:48;;;;;;;0.30;0.30;;;11.30;99.90;;;;;;4942186;28;20455;-84
2023/03/25 12:53:49;;;;;;;0.47;0.47;;;11.20;99.90;;;;;;4966379;28;20035;-84
2023/03/25 12:56:42;;;;;;;0.40;0.40;;;11.20;99.90;;;;;;4968745;28;20046;-83
2023/03/25 12:59:16;;;;;;;0.30;0.30;;;11.10;99.90;;;;;;4957471;28;20085;-84
2023/03/25 13:01:57;;;;;;;0.50;0.50;;;11.00;99.90;;;;;;4944721;28;20064;-83
2023/03/25 13:04:47;;;;;;;0.40;0.40;;;10.80;99.90;;;;;;4945388;28;20035;-83
2023/03/25 13:07:39;;;;;;;0.40;0.40;;;10.50;99.90;;;;;;4966568;28;20204;-83
2023/03/25 13:10:23;;;;;;;0.40;0.40;;;10.10;99.90;;;;;;4956822;28;20047;-83
2023/03/25 13:13:00;;;;;;;0.30;0.30;;;9.60;99.90;;;;;;4947234;28;20055;-83
2023/03/25 13:15:31;;;;;;;0.47;0.47;;;9.20;99.90;;;;;;4968523;28;20459;-84
2023/03/25 13:18:22;;;;;;;0.40;0.40;;;9.00;99.90;;;;;;4961536;28;20443;-84
2023/03/25 13:20:58;;;;;;;0.50;0.50;;;9.00;99.90;;;;;;4945876;28;20176;-84
2023/03/25 13:23:26;;;;;;;0.60;0.60;;;9.00;99.90;;;;;;4962673;28;20435;-83